createdAt,value
2019-03-08T00:00:31.428Z,97.60
2019-03-08T00:03:19.594Z,97.30
2019-03-08T00:06:07.382Z,97.80
2019-03-08T00:08:55.456Z,97.90
2019-03-08T00:11:43.304Z,98.00
2019-03-08T00:14:31.131Z,98.40
2019-03-08T00:17:19.507Z,98.50
2019-03-08T00:20:08.121Z,98.60
2019-03-08T00:22:55.915Z,98.50
2019-03-08T00:25:43.766Z,98.40
2019-03-08T00:28:31.741Z,98.20
2019-03-08T00:31:20.084Z,98.10
2019-03-08T00:34:08.095Z,98.10
2019-03-08T00:36:56.191Z,98.20
2019-03-08T00:39:43.648Z,97.90
2019-03-08T00:42:31.737Z,98.00
2019-03-08T00:45:19.533Z,97.90
2019-03-08T00:48:07.088Z,97.70
2019-03-08T00:50:55.234Z,97.70
2019-03-08T00:53:43.570Z,97.60
2019-03-08T00:56:31.546Z,97.30
2019-03-08T00:59:20.804Z,97.00
2019-03-08T01:02:08.921Z,96.90
2019-03-08T01:04:59.344Z,97.00
2019-03-08T01:07:47.420Z,96.90
2019-03-08T01:10:35.577Z,97.00
2019-03-08T01:13:23.588Z,97.10
2019-03-08T01:16:11.579Z,97.00
2019-03-08T01:18:59.918Z,97.00
2019-03-08T01:21:47.787Z,96.90
2019-03-08T01:24:35.740Z,97.00
2019-03-08T01:27:23.442Z,97.00
2019-03-08T01:30:12.083Z,97.10
2019-03-08T01:33:00.297Z,97.00
2019-03-08T01:35:48.476Z,97.00
2019-03-08T01:38:36.368Z,97.00
2019-03-08T01:41:24.134Z,97.00
2019-03-08T01:44:12.284Z,97.10
2019-03-08T01:47:00.477Z,97.30
2019-03-08T01:49:48.571Z,97.30
2019-03-08T01:52:36.807Z,97.10
2019-03-08T01:55:24.846Z,97.20
2019-03-08T01:58:13.061Z,97.10
2019-03-08T02:01:01.357Z,97.40
2019-03-08T02:03:49.507Z,97.30
2019-03-08T02:06:37.776Z,97.50
2019-03-08T02:09:27.466Z,97.50
2019-03-08T02:12:15.650Z,97.60
2019-03-08T02:15:04.131Z,97.70
2019-03-08T02:17:52.554Z,97.40
2019-03-08T02:20:41.607Z,97.40
2019-03-08T02:23:29.585Z,97.60
2019-03-08T02:26:17.335Z,97.70
2019-03-08T02:29:05.800Z,97.80
2019-03-08T02:31:54.307Z,98.00
2019-03-08T02:34:42.615Z,98.30
2019-03-08T02:37:30.528Z,98.40
2019-03-08T02:40:32.501Z,98.40
2019-03-08T02:43:21.061Z,98.40
2019-03-08T02:46:08.987Z,98.30
2019-03-08T02:48:56.926Z,98.10
2019-03-08T02:51:44.896Z,98.00
2019-03-08T02:54:34.961Z,97.90
2019-03-08T02:57:25.861Z,97.90
2019-03-08T03:00:13.997Z,97.90
2019-03-08T03:03:02.132Z,98.00
2019-03-08T03:05:50.200Z,97.90
2019-03-08T03:08:38.195Z,98.10
2019-03-08T03:11:26.320Z,98.20
2019-03-08T03:14:16.490Z,98.40
2019-03-08T03:17:07.367Z,98.40
2019-03-08T03:19:55.503Z,98.50
2019-03-08T03:22:43.558Z,98.50
2019-03-08T03:25:32.045Z,98.40
2019-03-08T03:28:20.124Z,98.40
2019-03-08T03:31:09.173Z,98.30
2019-03-08T03:33:57.103Z,98.30
2019-03-08T03:36:45.219Z,98.40
2019-03-08T03:39:33.163Z,98.30
2019-03-08T03:42:21.080Z,98.30
2019-03-08T03:45:09.557Z,98.30
2019-03-08T03:48:05.121Z,98.40
2019-03-08T03:50:52.776Z,98.40
2019-03-08T03:53:40.877Z,98.30
2019-03-08T03:56:29.018Z,98.40
2019-03-08T03:59:16.842Z,98.40
2019-03-08T04:02:04.797Z,98.30
2019-03-08T04:04:53.039Z,98.20
2019-03-08T04:07:41.668Z,98.20
2019-03-08T04:10:29.762Z,98.10
2019-03-08T04:13:17.588Z,98.10
2019-03-08T04:16:05.705Z,98.20
2019-03-08T04:18:54.097Z,98.10
2019-03-08T04:21:43.344Z,98.30
2019-03-08T04:24:31.114Z,98.20
2019-03-08T04:27:20.830Z,98.20
2019-03-08T04:30:13.781Z,98.10
2019-03-08T04:33:01.550Z,98.10
2019-03-08T04:35:49.231Z,98.20
2019-03-08T04:38:36.582Z,98.20
2019-03-08T04:41:25.304Z,98.40
2019-03-08T04:44:13.375Z,98.40
2019-03-08T04:47:01.065Z,98.50
2019-03-08T04:49:48.864Z,98.70
2019-03-08T04:52:36.789Z,98.60
2019-03-08T04:55:24.746Z,98.50
2019-03-08T04:58:12.880Z,98.50
2019-03-08T05:01:00.695Z,98.40
2019-03-08T05:03:49.069Z,98.40
2019-03-08T05:06:36.939Z,98.50
2019-03-08T05:09:24.812Z,98.50
2019-03-08T05:12:14.484Z,98.30
2019-03-08T05:15:02.457Z,98.20
2019-03-08T05:17:50.616Z,98.00
2019-03-08T05:20:38.754Z,98.00
2019-03-08T05:23:26.601Z,98.10
2019-03-08T05:26:14.823Z,98.10
2019-03-08T05:29:02.638Z,98.10
2019-03-08T05:31:50.792Z,97.90
2019-03-08T05:34:41.159Z,98.00
2019-03-08T05:37:28.982Z,98.00
2019-03-08T05:40:19.048Z,98.20
2019-03-08T05:43:06.701Z,98.40
2019-03-08T05:45:54.694Z,98.70
2019-03-08T05:48:42.735Z,98.90
2019-03-08T05:51:32.406Z,99.30
2019-03-08T05:54:20.392Z,99.60
2019-03-08T05:57:08.395Z,99.50
2019-03-08T05:59:56.864Z,99.40
2019-03-08T06:02:47.776Z,99.30
2019-03-08T06:05:36.029Z,99.50
2019-03-08T06:08:24.116Z,99.80
2019-03-08T06:11:12.484Z,99.90
2019-03-08T06:14:00.877Z,99.90
2019-03-08T06:16:48.506Z,99.90
2019-03-08T06:19:37.109Z,99.90
2019-03-08T06:22:25.135Z,99.90
2019-03-08T06:25:12.875Z,99.80
2019-03-08T06:28:00.746Z,99.90
2019-03-08T06:30:48.900Z,99.90
2019-03-08T06:33:36.778Z,99.90
2019-03-08T06:36:24.721Z,99.90
2019-03-08T06:39:12.368Z,99.90
2019-03-08T06:42:00.368Z,99.90
2019-03-08T06:44:48.273Z,99.90
2019-03-08T06:47:35.895Z,99.90
2019-03-08T06:50:23.918Z,99.90
2019-03-08T06:53:11.929Z,99.90
2019-03-08T06:55:59.940Z,99.90
2019-03-08T06:59:10.072Z,99.90
2019-03-08T07:01:58.139Z,99.90
2019-03-08T07:04:46.025Z,99.90
2019-03-08T07:07:34.562Z,99.90
2019-03-08T07:10:22.677Z,99.90
2019-03-08T07:13:10.847Z,99.90
2019-03-08T07:15:59.181Z,99.70
2019-03-08T07:18:47.452Z,99.70
2019-03-08T07:21:42.826Z,99.60
2019-03-08T07:24:50.422Z,99.20
2019-03-08T07:28:03.211Z,98.40
2019-03-08T07:31:06.202Z,97.70
2019-03-08T07:34:12.675Z,96.50
2019-03-08T07:37:25.795Z,95.10
2019-03-08T07:40:32.624Z,95.40
2019-03-08T07:43:30.751Z,94.90
2019-03-08T07:46:43.553Z,94.90
2019-03-08T07:49:49.001Z,94.10
2019-03-08T07:53:04.872Z,94.40
2019-03-08T07:56:11.072Z,93.90
2019-03-08T07:59:16.530Z,93.80
2019-03-08T08:02:23.951Z,93.20
2019-03-08T08:05:42.900Z,92.70
2019-03-08T08:08:51.650Z,92.60
2019-03-08T08:12:05.845Z,92.40
2019-03-08T08:15:07.925Z,92.40
2019-03-08T08:18:07.129Z,92.30
2019-03-08T08:21:10.706Z,92.40
2019-03-08T08:24:19.172Z,92.80
2019-03-08T08:27:35.399Z,92.20
2019-03-08T08:30:42.151Z,92.00
2019-03-08T08:33:50.566Z,91.80
2019-03-08T08:37:03.565Z,91.50
2019-03-08T08:39:59.943Z,91.60
2019-03-08T08:43:14.636Z,91.80
2019-03-08T08:46:20.280Z,91.70
2019-03-08T08:49:27.533Z,91.30
2019-03-08T08:52:22.660Z,91.20
2019-03-08T08:55:22.107Z,91.70
2019-03-08T08:58:39.781Z,91.50
2019-03-08T09:01:48.574Z,91.50
2019-03-08T09:04:58.551Z,91.70
2019-03-08T09:08:08.777Z,90.80
2019-03-08T09:11:11.435Z,90.80
2019-03-08T09:14:17.550Z,90.20
2019-03-08T09:17:27.534Z,90.40
2019-03-08T09:20:43.504Z,91.00
2019-03-08T09:23:59.522Z,91.10
2019-03-08T09:27:09.266Z,91.00
2019-03-08T09:30:07.695Z,90.40
2019-03-08T09:33:00.872Z,90.60
2019-03-08T09:35:59.222Z,90.70
2019-03-08T09:38:55.051Z,89.10
2019-03-08T09:42:03.288Z,87.00
2019-03-08T09:45:10.232Z,87.20
2019-03-08T09:48:09.020Z,86.00
2019-03-08T09:51:10.195Z,86.00
2019-03-08T09:54:12.341Z,86.00
2019-03-08T09:57:10.386Z,87.30
2019-03-08T10:00:15.286Z,87.00
2019-03-08T10:03:37.088Z,88.00
2019-03-08T10:06:53.122Z,88.90
2019-03-08T10:09:55.753Z,88.20
2019-03-08T10:13:05.950Z,88.30
2019-03-08T10:16:07.738Z,87.60
2019-03-08T10:19:04.148Z,88.20
2019-03-08T10:22:16.022Z,88.00
2019-03-08T10:25:28.743Z,87.00
2019-03-08T10:28:23.881Z,86.90
2019-03-08T10:31:30.700Z,87.40
2019-03-08T10:34:38.892Z,86.90
2019-03-08T10:37:54.623Z,87.30
2019-03-08T10:41:00.389Z,86.30
2019-03-08T10:44:16.829Z,86.00
2019-03-08T10:47:32.709Z,86.50
2019-03-08T10:50:30.193Z,87.70
2019-03-08T10:53:40.089Z,87.50
2019-03-08T10:56:52.821Z,86.60
2019-03-08T11:00:05.958Z,88.00
2019-03-08T11:03:02.488Z,88.60
2019-03-08T11:06:03.114Z,87.80
2019-03-08T11:09:14.922Z,89.50
2019-03-08T11:12:20.302Z,90.70
2019-03-08T11:15:40.877Z,90.80
2019-03-08T11:18:36.375Z,90.90
2019-03-08T11:21:42.856Z,91.00
2019-03-08T11:24:48.851Z,90.40
2019-03-08T11:28:02.742Z,90.80
2019-03-08T11:31:16.197Z,90.10
2019-03-08T11:34:35.871Z,89.90
2019-03-08T11:37:55.031Z,90.30
2019-03-08T11:41:03.598Z,89.80
2019-03-08T11:43:59.801Z,88.70
2019-03-08T11:47:02.196Z,87.50
2019-03-08T11:50:07.557Z,87.60
2019-03-08T11:53:10.474Z,83.10
2019-03-08T11:56:19.107Z,83.60
2019-03-08T11:59:28.584Z,84.90
2019-03-08T12:02:50.643Z,80.90
2019-03-08T12:05:50.924Z,79.30
2019-03-08T12:08:51.119Z,79.10
2019-03-08T12:12:07.575Z,75.80
2019-03-08T12:15:15.802Z,75.20
2019-03-08T12:18:28.710Z,74.50
2019-03-08T12:21:44.238Z,74.30
2019-03-08T12:25:06.829Z,75.10
2019-03-08T12:28:16.226Z,76.50
2019-03-08T12:31:15.752Z,77.90
2019-03-08T12:34:21.317Z,80.40
2019-03-08T12:37:26.976Z,81.60
2019-03-08T12:40:24.368Z,83.20
2019-03-08T12:43:42.304Z,84.20
2019-03-08T12:46:56.597Z,85.40
2019-03-08T12:50:02.511Z,87.50
2019-03-08T12:53:01.745Z,88.20
2019-03-08T12:55:58.292Z,90.00
2019-03-08T12:58:53.329Z,88.90
2019-03-08T13:02:08.296Z,88.80
2019-03-08T13:05:07.137Z,88.60
2019-03-08T13:08:02.275Z,88.10
2019-03-08T13:10:50.212Z,88.70
2019-03-08T13:13:38.236Z,90.00
2019-03-08T13:16:26.057Z,90.50
2019-03-08T13:19:14.058Z,91.30
2019-03-08T13:22:01.890Z,92.00
2019-03-08T13:24:50.027Z,92.60
2019-03-08T13:27:41.332Z,92.40
2019-03-08T13:30:29.180Z,92.60
2019-03-08T13:33:17.217Z,92.70
2019-03-08T13:36:05.194Z,93.60
2019-03-08T13:38:53.033Z,93.80
2019-03-08T13:41:41.010Z,93.50
2019-03-08T13:44:28.593Z,94.30
2019-03-08T13:47:16.273Z,94.30
2019-03-08T13:50:04.924Z,94.50
2019-03-08T13:52:52.912Z,94.80
2019-03-08T13:55:41.403Z,94.70
2019-03-08T13:58:29.470Z,94.80
2019-03-08T14:01:17.570Z,94.60
2019-03-08T14:04:05.505Z,94.80
2019-03-08T14:06:54.178Z,94.70
2019-03-08T14:09:42.098Z,94.60
2019-03-08T14:12:30.261Z,94.20
2019-03-08T14:15:18.169Z,93.70
2019-03-08T14:18:06.389Z,93.10
2019-03-08T14:20:54.154Z,93.20
2019-03-08T14:23:41.987Z,93.60
2019-03-08T14:26:30.186Z,93.70
2019-03-08T14:29:18.785Z,93.90
2019-03-08T14:32:09.883Z,94.90
2019-03-08T14:34:58.099Z,95.10
2019-03-08T14:37:46.001Z,95.40
2019-03-08T14:40:59.124Z,95.80
2019-03-08T14:43:52.495Z,95.80
2019-03-08T14:46:53.052Z,96.10
2019-03-08T14:49:41.609Z,96.30
2019-03-08T14:52:31.932Z,96.20
2019-03-08T14:55:22.693Z,96.20
2019-03-08T14:58:09.515Z,96.50
2019-03-08T15:00:57.599Z,96.40
2019-03-08T15:03:45.658Z,95.80
2019-03-08T15:06:33.524Z,95.90
2019-03-08T15:09:21.274Z,96.20
2019-03-08T15:12:16.352Z,95.70
2019-03-08T15:14:58.411Z,96.10
2019-03-08T15:17:49.728Z,95.20
2019-03-08T15:20:37.749Z,94.00
2019-03-08T15:23:25.280Z,94.10
2019-03-08T15:26:13.297Z,94.10
2019-03-08T15:29:01.904Z,94.20
2019-03-08T15:31:50.108Z,93.80
2019-03-08T15:34:38.313Z,93.90
2019-03-08T15:37:26.467Z,94.00
2019-03-08T15:40:16.966Z,94.20
2019-03-08T15:43:05.083Z,93.80
2019-03-08T15:45:52.951Z,93.30
2019-03-08T15:48:40.535Z,92.80
2019-03-08T15:51:28.840Z,92.70
2019-03-08T15:54:19.804Z,92.60
2019-03-08T15:57:07.881Z,92.30
2019-03-08T15:59:55.579Z,92.20
2019-03-08T16:02:44.821Z,91.90
2019-03-08T16:05:32.646Z,91.90
2019-03-08T16:08:20.259Z,91.70
2019-03-08T16:11:08.331Z,91.50
2019-03-08T16:13:56.454Z,91.70
2019-03-08T16:16:44.642Z,91.70
2019-03-08T16:19:32.838Z,91.30
2019-03-08T16:22:24.855Z,91.20
2019-03-08T16:25:11.913Z,91.20
2019-03-08T16:27:59.624Z,91.10
2019-03-08T16:30:50.542Z,91.20
2019-03-08T16:33:45.027Z,91.40
2019-03-08T16:36:51.966Z,91.50
2019-03-08T16:39:59.314Z,91.80
2019-03-08T16:42:59.959Z,91.70
2019-03-08T16:46:05.792Z,91.70
2019-03-08T16:49:00.700Z,91.20
2019-03-08T16:52:07.108Z,90.90
2019-03-08T16:55:02.677Z,91.20
2019-03-08T16:58:01.353Z,90.90
2019-03-08T17:01:07.589Z,91.00
2019-03-08T17:04:05.236Z,91.20
2019-03-08T17:07:31.293Z,90.90
2019-03-08T17:10:41.318Z,90.70
2019-03-08T17:13:39.468Z,90.80
2019-03-08T17:16:52.504Z,91.30
2019-03-08T17:19:58.258Z,91.10
2019-03-08T17:23:14.475Z,91.00
2019-03-08T17:26:27.261Z,91.00
2019-03-08T17:29:22.969Z,90.90
2019-03-08T17:32:16.212Z,90.80
2019-03-08T17:35:22.663Z,90.70
2019-03-08T17:38:29.269Z,90.60
2019-03-08T17:41:42.549Z,90.60
2019-03-08T17:44:59.176Z,90.70
2019-03-08T17:48:07.791Z,90.80
2019-03-08T17:51:10.285Z,90.90
2019-03-08T17:54:16.790Z,90.90
2019-03-08T17:57:39.242Z,91.00
2019-03-08T18:00:46.740Z,91.10
2019-03-08T18:03:53.487Z,91.00
2019-03-08T18:06:59.038Z,91.20
2019-03-08T18:10:07.593Z,91.30
2019-03-08T18:13:23.149Z,91.30
2019-03-08T18:16:33.348Z,91.40
2019-03-08T18:19:30.203Z,91.40
2019-03-08T18:22:34.174Z,91.50
2019-03-08T18:25:30.705Z,91.60
2019-03-08T18:28:40.305Z,91.30
2019-03-08T18:31:52.280Z,91.60
2019-03-08T18:35:00.243Z,91.20
2019-03-08T18:38:10.001Z,90.90
2019-03-08T18:41:16.027Z,90.90
2019-03-08T18:44:23.673Z,91.00
2019-03-08T18:47:36.981Z,91.10
2019-03-08T18:50:43.160Z,91.10
2019-03-08T18:54:08.453Z,91.40
2019-03-08T18:57:12.506Z,91.50
2019-03-08T19:00:16.003Z,91.40
2019-03-08T19:03:32.076Z,91.60
2019-03-08T19:06:38.775Z,91.70
2019-03-08T19:09:37.919Z,91.80
2019-03-08T19:13:00.296Z,92.30
2019-03-08T19:15:59.696Z,92.40
2019-03-08T19:19:05.376Z,92.50
2019-03-08T19:22:10.555Z,92.70
2019-03-08T19:25:27.012Z,92.70
2019-03-08T19:28:34.307Z,92.70
2019-03-08T19:31:44.538Z,93.10
2019-03-08T19:34:43.902Z,93.00
2019-03-08T19:37:51.051Z,93.30
2019-03-08T19:41:03.912Z,93.40
2019-03-08T19:44:09.096Z,93.30
2019-03-08T19:47:16.297Z,93.40
2019-03-08T19:50:35.530Z,93.40
2019-03-08T19:53:41.321Z,93.30
2019-03-08T19:56:57.375Z,93.40
2019-03-08T19:59:56.620Z,93.60
2019-03-08T20:02:54.019Z,93.40
2019-03-08T20:05:50.268Z,93.40
2019-03-08T20:08:51.340Z,93.40
2019-03-08T20:11:49.947Z,93.50
2019-03-08T20:15:00.337Z,93.70
2019-03-08T20:18:06.168Z,93.80
2019-03-08T20:21:16.228Z,93.70
2019-03-08T20:24:36.221Z,93.90
2019-03-08T20:27:46.178Z,93.90
2019-03-08T20:30:42.493Z,94.20
2019-03-08T20:34:10.423Z,94.00
2019-03-08T20:37:19.477Z,94.20
2019-03-08T20:40:38.448Z,94.10
2019-03-08T20:43:37.067Z,94.00
2019-03-08T20:46:35.700Z,94.40
2019-03-08T20:49:23.939Z,94.40
2019-03-08T20:52:12.122Z,94.50
2019-03-08T20:55:00.169Z,94.60
2019-03-08T20:57:48.418Z,94.70
2019-03-08T21:00:36.486Z,94.70
2019-03-08T21:03:26.738Z,94.90
2019-03-08T21:06:15.172Z,94.90
2019-03-08T21:09:04.673Z,95.20
2019-03-08T21:11:52.792Z,95.10
2019-03-08T21:14:41.301Z,94.80
2019-03-08T21:17:29.238Z,94.80
2019-03-08T21:20:17.327Z,94.70
2019-03-08T21:23:05.916Z,94.50
2019-03-08T21:25:53.941Z,94.60
2019-03-08T21:28:42.068Z,94.70
2019-03-08T21:31:30.113Z,94.70
2019-03-08T21:34:18.789Z,94.70
2019-03-08T21:37:06.416Z,94.70
2019-03-08T21:39:54.349Z,94.80
2019-03-08T21:42:45.172Z,95.20
2019-03-08T21:45:35.847Z,95.20
2019-03-08T21:48:24.088Z,95.20
2019-03-08T21:51:13.840Z,95.20
2019-03-08T21:54:01.615Z,95.20
2019-03-08T21:56:49.453Z,94.80
2019-03-08T21:59:37.501Z,94.70
2019-03-08T22:02:25.560Z,94.80
2019-03-08T22:05:14.473Z,94.80
2019-03-08T22:08:02.311Z,94.90
2019-03-08T22:11:09.533Z,95.20
2019-03-08T22:13:57.556Z,95.30
2019-03-08T22:16:45.409Z,95.30
2019-03-08T22:19:34.351Z,95.10
2019-03-08T22:22:22.568Z,95.10
2019-03-08T22:25:10.454Z,95.00
2019-03-08T22:27:58.594Z,95.00
2019-03-08T22:30:46.607Z,95.10
2019-03-08T22:33:34.532Z,95.50
2019-03-08T22:36:22.566Z,95.60
2019-03-08T22:39:10.088Z,95.60
2019-03-08T22:41:57.908Z,95.50
2019-03-08T22:44:46.055Z,95.60
2019-03-08T22:47:33.995Z,95.70
2019-03-08T22:50:22.201Z,95.80
2019-03-08T22:53:10.032Z,95.70
2019-03-08T22:55:58.142Z,95.60
2019-03-08T22:58:46.185Z,95.70
2019-03-08T23:01:48.373Z,95.70
2019-03-08T23:04:36.541Z,95.70
2019-03-08T23:07:24.634Z,95.80
2019-03-08T23:10:12.871Z,95.80
2019-03-08T23:13:00.798Z,95.80
2019-03-08T23:15:48.629Z,95.90
2019-03-08T23:18:36.272Z,95.90
2019-03-08T23:21:24.285Z,96.00
2019-03-08T23:24:12.404Z,95.90
2019-03-08T23:27:25.986Z,95.80
2019-03-08T23:30:18.757Z,95.90
2019-03-08T23:33:06.171Z,96.00
2019-03-08T23:35:54.306Z,96.00
2019-03-08T23:38:41.716Z,96.10
2019-03-08T23:41:29.457Z,96.20
2019-03-08T23:44:18.363Z,96.10
2019-03-08T23:47:06.228Z,96.20
2019-03-08T23:49:53.764Z,96.10
2019-03-08T23:52:41.407Z,96.20
2019-03-08T23:55:29.129Z,96.40
2019-03-08T23:58:17.239Z,96.30
